createdAt,value
2023-05-24T00:00:33.875Z,3.38
2023-05-24T00:01:04.848Z,3.21
2023-05-24T00:01:36.281Z,3.21
2023-05-24T00:02:07.511Z,3.38
2023-05-24T00:02:39.547Z,3.78
2023-05-24T00:02:55.863Z,3.78
2023-05-24T00:03:27.383Z,3.78
2023-05-24T00:03:59.534Z,4.02
2023-05-24T00:04:31.725Z,4.02
2023-05-24T00:05:05.216Z,4.02
2023-05-24T00:05:37.010Z,4.02
2023-05-24T00:06:07.357Z,3.61
2023-05-24T00:06:39.638Z,3.05
2023-05-24T00:06:55.905Z,2.89
2023-05-24T00:07:27.732Z,2.89
2023-05-24T00:07:59.388Z,3.46
2023-05-24T00:08:32.179Z,3.46
2023-05-24T00:09:03.499Z,2.89
2023-05-24T00:09:35.983Z,2.89
2023-05-24T00:10:08.161Z,3.46
2023-05-24T00:10:40.103Z,3.61
2023-05-24T00:10:56.204Z,4.02
2023-05-24T00:11:27.285Z,3.61
2023-05-24T00:11:59.345Z,3.05
2023-05-24T00:12:31.701Z,2.89
2023-05-24T00:13:03.489Z,2.89
2023-05-24T00:13:36.206Z,2.89
2023-05-24T00:14:07.330Z,2.89
2023-05-24T00:14:39.577Z,2.89
2023-05-24T00:14:56.055Z,2.89
2023-05-24T00:15:28.368Z,2.89
2023-05-24T00:15:59.558Z,2.89
2023-05-24T00:16:31.603Z,2.89
2023-05-24T00:17:03.519Z,3.05
2023-05-24T00:17:36.117Z,3.05
2023-05-24T00:18:07.420Z,2.89
2023-05-24T00:18:39.495Z,2.89
2023-05-24T00:18:56.071Z,2.89
2023-05-24T00:19:27.502Z,2.89
2023-05-24T00:19:59.498Z,2.89
2023-05-24T00:20:16.423Z,2.89
2023-05-24T00:20:37.160Z,2.89
2023-05-24T00:21:03.534Z,3.05
2023-05-24T00:21:36.023Z,3.05
2023-05-24T00:22:07.534Z,3.21
2023-05-24T00:22:39.552Z,3.05
2023-05-24T00:22:55.865Z,2.89
2023-05-24T00:23:27.309Z,2.89
2023-05-24T00:23:59.465Z,2.89
2023-05-24T00:24:31.753Z,2.89
2023-05-24T00:25:05.170Z,2.89
2023-05-24T00:25:36.267Z,2.89
2023-05-24T00:26:07.526Z,2.89
2023-05-24T00:26:39.874Z,2.89
2023-05-24T00:26:56.009Z,2.89
2023-05-24T00:27:27.345Z,2.89
2023-05-24T00:27:59.449Z,2.89
2023-05-24T00:28:31.602Z,2.89
2023-05-24T00:29:03.448Z,2.89
2023-05-24T00:29:36.363Z,2.89
2023-05-24T00:30:08.831Z,2.89
2023-05-24T00:30:39.999Z,2.89
2023-05-24T00:30:56.447Z,2.89
2023-05-24T00:31:27.721Z,2.89
2023-05-24T00:31:59.455Z,2.89
2023-05-24T00:32:31.720Z,2.89
2023-05-24T00:33:03.550Z,2.89
2023-05-24T00:33:36.006Z,3.05
2023-05-24T00:34:07.396Z,3.21
2023-05-24T00:34:39.743Z,3.21
2023-05-24T00:34:56.074Z,3.05
2023-05-24T00:35:28.290Z,3.38
2023-05-24T00:35:59.342Z,3.38
2023-05-24T00:36:32.593Z,3.38
2023-05-24T00:37:03.748Z,3.54
2023-05-24T00:37:36.079Z,3.22
2023-05-24T00:38:07.394Z,2.89
2023-05-24T00:38:39.618Z,2.89
2023-05-24T00:38:55.901Z,2.89
2023-05-24T00:39:27.441Z,2.89
2023-05-24T00:39:59.468Z,3.05
2023-05-24T00:40:32.063Z,3.05
2023-05-24T00:41:03.652Z,3.05
2023-05-24T00:41:36.188Z,3.38
2023-05-24T00:42:07.556Z,3.38
2023-05-24T00:42:39.596Z,3.21
2023-05-24T00:42:56.284Z,3.05
2023-05-24T00:43:27.706Z,2.89
2023-05-24T00:43:59.570Z,2.89
2023-05-24T00:44:32.090Z,3.05
2023-05-24T00:45:05.954Z,3.21
2023-05-24T00:45:36.185Z,3.21
2023-05-24T00:46:07.529Z,3.38
2023-05-24T00:46:39.707Z,3.38
2023-05-24T00:46:56.315Z,3.38
2023-05-24T00:47:27.547Z,3.38
2023-05-24T00:47:59.461Z,3.54
2023-05-24T00:48:15.983Z,3.78
2023-05-24T00:48:37.484Z,4.02
2023-05-24T00:49:03.434Z,4.18
2023-05-24T00:49:35.958Z,4.18
2023-05-24T00:50:08.653Z,4.18
2023-05-24T00:50:39.585Z,4.18
2023-05-24T00:50:56.277Z,4.50
2023-05-24T00:51:27.477Z,4.18
2023-05-24T00:51:59.844Z,4.50
2023-05-24T00:52:16.011Z,4.50
2023-05-24T00:52:37.868Z,4.82
2023-05-24T00:53:04.582Z,4.82
2023-05-24T00:53:36.727Z,5.23
2023-05-24T00:54:07.910Z,5.47
2023-05-24T00:54:39.583Z,5.47
2023-05-24T00:54:55.990Z,5.47
2023-05-24T00:55:28.372Z,5.47
2023-05-24T00:55:59.828Z,5.47
2023-05-24T00:56:31.869Z,5.63
2023-05-24T00:57:04.412Z,5.95
2023-05-24T00:57:36.136Z,5.95
2023-05-24T00:58:07.526Z,5.95
2023-05-24T00:58:39.619Z,6.11
2023-05-24T00:58:55.938Z,6.11
2023-05-24T00:59:27.840Z,6.11
2023-05-24T00:59:59.391Z,6.11
2023-05-24T01:00:33.297Z,6.11
2023-05-24T01:01:05.124Z,6.11
2023-05-24T01:01:51.496Z,6.27
2023-05-24T01:02:23.418Z,6.27
2023-05-24T01:02:45.188Z,6.27
2023-05-24T01:03:11.590Z,6.68
2023-05-24T01:03:37.206Z,6.52
2023-05-24T01:03:59.637Z,6.11
2023-05-24T01:04:31.697Z,6.11
2023-05-24T01:05:05.010Z,6.11
2023-05-24T01:05:35.925Z,6.11
2023-05-24T01:06:08.061Z,6.11
2023-05-24T01:06:39.586Z,6.11
2023-05-24T01:06:56.024Z,6.11
2023-05-24T01:07:27.441Z,6.11
2023-05-24T01:07:59.462Z,6.11
2023-05-24T01:08:31.692Z,6.11
2023-05-24T01:09:03.524Z,6.11
2023-05-24T01:09:36.440Z,7.00
2023-05-24T01:10:09.010Z,7.88
2023-05-24T01:10:39.705Z,7.88
2023-05-24T01:10:56.693Z,7.56
2023-05-24T01:11:27.313Z,6.68
2023-05-24T01:11:59.445Z,6.68
2023-05-24T01:12:31.745Z,7.40
2023-05-24T01:13:03.722Z,6.68
2023-05-24T01:13:35.996Z,6.84
2023-05-24T01:14:07.536Z,7.40
2023-05-24T01:14:39.546Z,7.72
2023-05-24T01:14:56.065Z,7.88
2023-05-24T01:15:28.381Z,8.29
2023-05-24T01:15:59.632Z,8.69
2023-05-24T01:16:31.810Z,8.29
2023-05-24T01:17:03.529Z,7.88
2023-05-24T01:17:36.293Z,7.88
2023-05-24T01:18:07.508Z,7.88
2023-05-24T01:18:39.542Z,7.88
2023-05-24T01:18:55.823Z,8.29
2023-05-24T01:19:27.442Z,7.88
2023-05-24T01:20:00.143Z,7.88
2023-05-24T01:20:32.268Z,8.29
2023-05-24T01:21:03.486Z,8.29
2023-05-24T01:21:36.036Z,9.17
2023-05-24T01:22:07.536Z,9.89
2023-05-24T01:22:39.675Z,10.13
2023-05-24T01:22:55.977Z,10.30
2023-05-24T01:23:27.706Z,10.30
2023-05-24T01:23:59.484Z,10.13
2023-05-24T01:24:31.853Z,10.30
2023-05-24T01:25:05.216Z,10.13
2023-05-24T01:25:36.205Z,9.57
2023-05-24T01:26:07.476Z,9.57
2023-05-24T01:26:39.772Z,9.57
2023-05-24T01:26:56.027Z,10.30
2023-05-24T01:27:27.524Z,9.57
2023-05-24T01:27:59.493Z,9.57
2023-05-24T01:28:31.665Z,8.85
2023-05-24T01:29:03.518Z,8.85
2023-05-24T01:29:35.992Z,8.85
2023-05-24T01:30:08.809Z,9.17
2023-05-24T01:30:39.754Z,9.17
2023-05-24T01:30:56.352Z,9.17
2023-05-24T01:31:27.496Z,9.01
2023-05-24T01:31:59.495Z,8.85
2023-05-24T01:32:31.697Z,8.69
2023-05-24T01:33:03.633Z,8.29
2023-05-24T01:33:36.256Z,8.29
2023-05-24T01:34:07.604Z,8.45
2023-05-24T01:34:39.477Z,8.04
2023-05-24T01:34:56.025Z,8.04
2023-05-24T01:35:27.824Z,7.88
2023-05-24T01:35:59.455Z,7.72
2023-05-24T01:36:33.201Z,7.40
2023-05-24T01:37:03.421Z,6.68
2023-05-24T01:37:35.960Z,6.68
2023-05-24T01:38:07.484Z,6.68
2023-05-24T01:38:39.429Z,7.40
2023-05-24T01:38:56.001Z,7.40
2023-05-24T01:39:27.394Z,7.56
2023-05-24T01:39:59.458Z,7.56
2023-05-24T01:40:31.935Z,6.68
2023-05-24T01:41:03.553Z,6.68
2023-05-24T01:41:35.983Z,7.08
2023-05-24T01:42:07.732Z,7.72
2023-05-24T01:42:39.810Z,8.45
2023-05-24T01:43:11.440Z,8.45
2023-05-24T01:43:37.010Z,7.72
2023-05-24T01:43:59.403Z,7.56
2023-05-24T01:44:31.617Z,7.56
2023-05-24T01:45:05.752Z,8.29
2023-05-24T01:45:36.104Z,8.45
2023-05-24T01:46:07.418Z,8.69
2023-05-24T01:46:39.537Z,8.69
2023-05-24T01:46:56.145Z,8.85
2023-05-24T01:47:27.885Z,8.85
2023-05-24T01:47:59.568Z,8.85
2023-05-24T01:48:31.785Z,8.85
2023-05-24T01:49:03.669Z,8.85
2023-05-24T01:49:36.327Z,8.85
2023-05-24T01:50:08.553Z,8.45
2023-05-24T01:50:39.566Z,8.45
2023-05-24T01:50:56.262Z,8.20
2023-05-24T01:51:27.426Z,8.20
2023-05-24T01:51:59.589Z,8.04
2023-05-24T01:52:32.084Z,8.04
2023-05-24T01:53:03.597Z,8.20
2023-05-24T01:53:37.348Z,8.61
2023-05-24T01:54:07.412Z,9.17
2023-05-24T01:54:39.488Z,9.49
2023-05-24T01:54:56.048Z,9.49
2023-05-24T01:55:27.970Z,9.65
2023-05-24T01:55:59.550Z,9.65
2023-05-24T01:56:32.109Z,9.65
2023-05-24T01:57:03.568Z,9.65
2023-05-24T01:57:36.001Z,9.65
2023-05-24T01:58:07.473Z,9.49
2023-05-24T01:58:39.618Z,9.49
2023-05-24T01:58:55.987Z,9.17
2023-05-24T01:59:27.426Z,8.85
2023-05-24T01:59:59.372Z,8.85
2023-05-24T02:00:33.113Z,8.85
2023-05-24T02:01:04.817Z,8.85
2023-05-24T02:01:36.715Z,9.33
2023-05-24T02:02:07.690Z,9.33
2023-05-24T02:02:39.679Z,8.85
2023-05-24T02:02:56.399Z,8.69
2023-05-24T02:03:27.392Z,8.29
2023-05-24T02:03:59.542Z,8.29
2023-05-24T02:04:31.632Z,8.29
2023-05-24T02:05:05.182Z,8.29
2023-05-24T02:05:36.391Z,8.29
2023-05-24T02:06:07.415Z,8.29
2023-05-24T02:06:39.491Z,8.29
2023-05-24T02:06:56.015Z,8.29
2023-05-24T02:07:27.460Z,8.29
2023-05-24T02:07:59.370Z,8.29
2023-05-24T02:08:31.544Z,8.85
2023-05-24T02:09:03.528Z,8.85
2023-05-24T02:09:36.417Z,8.85
2023-05-24T02:10:08.169Z,9.17
2023-05-24T02:10:39.818Z,9.33
2023-05-24T02:10:56.386Z,9.33
2023-05-24T02:11:27.421Z,9.17
2023-05-24T02:11:59.620Z,9.17
2023-05-24T02:12:15.918Z,9.33
2023-05-24T02:12:37.060Z,9.33
2023-05-24T02:13:03.917Z,9.49
2023-05-24T02:13:36.087Z,9.65
2023-05-24T02:14:07.559Z,9.49
2023-05-24T02:14:40.060Z,9.49
2023-05-24T02:14:56.120Z,9.49
2023-05-24T02:15:28.340Z,9.65
2023-05-24T02:15:59.443Z,9.65
2023-05-24T02:16:31.658Z,9.65
2023-05-24T02:17:03.543Z,9.89
2023-05-24T02:17:36.393Z,9.89
2023-05-24T02:18:07.531Z,9.89
2023-05-24T02:18:39.526Z,9.89
2023-05-24T02:18:55.908Z,9.89
2023-05-24T02:19:27.519Z,9.89
2023-05-24T02:19:59.589Z,9.65
2023-05-24T02:20:16.464Z,9.65
2023-05-24T02:20:37.707Z,9.65
2023-05-24T02:21:03.676Z,9.89
2023-05-24T02:21:36.131Z,10.30
2023-05-24T02:22:07.507Z,9.89
2023-05-24T02:22:39.669Z,10.30
2023-05-24T02:22:55.930Z,10.46
2023-05-24T02:23:27.461Z,10.78
2023-05-24T02:23:59.558Z,10.94
2023-05-24T02:24:31.696Z,10.94
2023-05-24T02:25:05.328Z,10.94
2023-05-24T02:25:36.043Z,10.46
2023-05-24T02:26:07.551Z,10.62
2023-05-24T02:26:39.490Z,10.22
2023-05-24T02:26:56.024Z,10.22
2023-05-24T02:27:27.360Z,10.22
2023-05-24T02:27:59.646Z,11.34
2023-05-24T02:28:31.552Z,11.58
2023-05-24T02:29:03.641Z,11.58
2023-05-24T02:29:36.279Z,11.58
2023-05-24T02:30:08.722Z,11.58
2023-05-24T02:30:39.775Z,11.58
2023-05-24T02:30:56.304Z,11.34
2023-05-24T02:31:27.488Z,11.02
2023-05-24T02:31:59.346Z,11.02
2023-05-24T02:32:31.586Z,10.06
2023-05-24T02:33:03.701Z,10.06
2023-05-24T02:33:36.055Z,9.65
2023-05-24T02:34:07.760Z,9.49
2023-05-24T02:34:39.521Z,9.17
2023-05-24T02:34:55.930Z,9.17
2023-05-24T02:35:27.815Z,9.49
2023-05-24T02:35:59.625Z,9.49
2023-05-24T02:36:15.938Z,9.65
2023-05-24T02:36:37.135Z,9.65
2023-05-24T02:37:03.666Z,9.89
2023-05-24T02:37:36.095Z,9.65
2023-05-24T02:38:07.463Z,9.33
2023-05-24T02:38:39.593Z,9.01
2023-05-24T02:38:56.105Z,9.01
2023-05-24T02:39:27.479Z,9.57
2023-05-24T02:39:59.594Z,9.17
2023-05-24T02:40:31.973Z,9.73
2023-05-24T02:41:03.622Z,9.73
2023-05-24T02:41:36.094Z,9.73
2023-05-24T02:42:07.468Z,10.30
2023-05-24T02:42:39.528Z,9.73
2023-05-24T02:42:55.970Z,9.73
2023-05-24T02:43:27.380Z,9.73
2023-05-24T02:43:59.471Z,9.73
2023-05-24T02:44:31.885Z,9.90
2023-05-24T02:45:05.888Z,9.90
2023-05-24T02:45:36.204Z,9.90
2023-05-24T02:46:07.484Z,9.90
2023-05-24T02:46:39.675Z,9.33
2023-05-24T02:46:56.029Z,9.33
2023-05-24T02:47:27.582Z,9.33
2023-05-24T02:47:59.723Z,9.33
2023-05-24T02:48:31.542Z,9.33
2023-05-24T02:49:03.641Z,9.33
2023-05-24T02:49:36.298Z,9.33
2023-05-24T02:50:08.205Z,9.33
2023-05-24T02:50:39.565Z,9.33
2023-05-24T02:50:56.884Z,9.49
2023-05-24T02:51:27.348Z,9.65
2023-05-24T02:51:59.781Z,9.65
2023-05-24T02:52:31.775Z,10.06
2023-05-24T02:53:03.607Z,10.46
2023-05-24T02:53:35.954Z,10.46
2023-05-24T02:54:08.595Z,10.46
2023-05-24T02:54:39.652Z,10.06
2023-05-24T02:54:56.887Z,9.65
2023-05-24T02:55:27.971Z,9.65
2023-05-24T02:55:59.421Z,9.65
2023-05-24T02:56:31.668Z,9.65
2023-05-24T02:57:03.569Z,9.65
2023-05-24T02:57:36.065Z,9.65
2023-05-24T02:58:07.429Z,9.65
2023-05-24T02:58:39.591Z,9.65
2023-05-24T02:58:56.169Z,9.65
2023-05-24T02:59:27.454Z,9.65
2023-05-24T02:59:59.788Z,9.65
2023-05-24T03:00:32.686Z,9.49
2023-05-24T03:01:05.121Z,9.49
2023-05-24T03:01:36.210Z,9.01
2023-05-24T03:02:07.614Z,9.01
2023-05-24T03:02:39.562Z,9.01
2023-05-24T03:02:56.028Z,9.01
2023-05-24T03:03:27.551Z,9.01
2023-05-24T03:04:00.184Z,8.69
2023-05-24T03:04:31.679Z,8.45
2023-05-24T03:05:05.238Z,8.69
2023-05-24T03:05:36.046Z,8.69
2023-05-24T03:06:07.414Z,8.69
2023-05-24T03:06:39.533Z,9.17
2023-05-24T03:06:55.898Z,9.89
2023-05-24T03:07:27.400Z,10.30
2023-05-24T03:07:59.404Z,10.30
2023-05-24T03:08:31.618Z,9.89
2023-05-24T03:09:03.887Z,9.89
2023-05-24T03:09:36.958Z,9.89
2023-05-24T03:10:08.234Z,9.89
2023-05-24T03:10:39.869Z,9.89
2023-05-24T03:10:56.538Z,9.89
2023-05-24T03:11:27.511Z,9.89
2023-05-24T03:11:59.528Z,9.89
2023-05-24T03:12:31.646Z,9.89
2023-05-24T03:13:04.094Z,10.22
2023-05-24T03:13:36.152Z,10.94
2023-05-24T03:14:07.583Z,10.94
2023-05-24T03:14:39.547Z,10.94
2023-05-24T03:14:56.025Z,10.94
2023-05-24T03:15:28.401Z,10.62
2023-05-24T03:15:59.636Z,10.06
2023-05-24T03:16:31.647Z,9.33
2023-05-24T03:17:03.606Z,8.85
2023-05-24T03:17:36.216Z,8.29
2023-05-24T03:18:08.135Z,8.29
2023-05-24T03:18:39.719Z,7.72
2023-05-24T03:18:55.972Z,7.72
2023-05-24T03:19:27.683Z,7.72
2023-05-24T03:19:59.741Z,8.29
2023-05-24T03:20:32.230Z,9.17
2023-05-24T03:21:04.070Z,8.29
2023-05-24T03:21:36.283Z,7.72
2023-05-24T03:22:07.984Z,7.72
2023-05-24T03:22:39.886Z,7.72
2023-05-24T03:22:56.281Z,7.72
2023-05-24T03:23:27.688Z,7.72
2023-05-24T03:23:59.742Z,7.72
2023-05-24T03:24:31.814Z,7.88
2023-05-24T03:25:05.743Z,8.29
2023-05-24T03:25:36.281Z,8.69
2023-05-24T03:26:07.936Z,8.69
2023-05-24T03:26:39.733Z,8.69
2023-05-24T03:26:56.251Z,8.69
2023-05-24T03:27:27.535Z,9.01
2023-05-24T03:27:59.708Z,8.69
2023-05-24T03:28:31.740Z,8.85
2023-05-24T03:29:03.849Z,9.17
2023-05-24T03:29:36.248Z,8.85
2023-05-24T03:30:09.114Z,8.69
2023-05-24T03:30:39.962Z,8.69
2023-05-24T03:30:56.672Z,8.69
2023-05-24T03:31:27.690Z,8.69
2023-05-24T03:31:59.785Z,8.69
2023-05-24T03:32:16.073Z,8.69
2023-05-24T03:32:37.303Z,8.85
2023-05-24T03:33:03.856Z,8.85
2023-05-24T03:33:36.259Z,9.17
2023-05-24T03:34:07.709Z,9.17
2023-05-24T03:34:39.817Z,9.17
2023-05-24T03:34:56.307Z,9.17
2023-05-24T03:35:28.125Z,9.73
2023-05-24T03:35:59.667Z,10.30
2023-05-24T03:36:33.462Z,10.46
2023-05-24T03:37:03.798Z,10.46
2023-05-24T03:37:36.254Z,10.46
2023-05-24T03:38:07.708Z,10.46
2023-05-24T03:38:39.954Z,10.62
2023-05-24T03:38:56.274Z,10.94
2023-05-24T03:39:27.756Z,11.50
2023-05-24T03:39:59.684Z,11.50
2023-05-24T03:40:32.626Z,11.50
2023-05-24T03:41:03.824Z,11.90
2023-05-24T03:41:36.977Z,11.90
2023-05-24T03:42:07.598Z,11.90
2023-05-24T03:42:39.886Z,11.90
2023-05-24T03:42:56.214Z,11.34
2023-05-24T03:43:27.672Z,10.62
2023-05-24T03:43:59.601Z,10.62
2023-05-24T03:44:31.802Z,10.46
2023-05-24T03:45:05.858Z,10.06
2023-05-24T03:45:39.848Z,10.06
2023-05-24T03:46:07.712Z,10.06
2023-05-24T03:46:39.991Z,10.78
2023-05-24T03:46:56.398Z,11.90
2023-05-24T03:47:27.666Z,11.34
2023-05-24T03:47:59.827Z,11.18
2023-05-24T03:48:31.699Z,10.22
2023-05-24T03:49:03.894Z,10.22
2023-05-24T03:49:36.339Z,9.49
2023-05-24T03:50:08.561Z,9.49
2023-05-24T03:50:39.938Z,9.89
2023-05-24T03:50:56.830Z,9.49
2023-05-24T03:51:27.705Z,9.49
2023-05-24T03:51:59.719Z,9.33
2023-05-24T03:52:31.763Z,9.73
2023-05-24T03:53:03.770Z,9.73
2023-05-24T03:53:36.265Z,9.73
2023-05-24T03:54:07.748Z,10.46
2023-05-24T03:54:39.989Z,10.94
2023-05-24T03:54:57.558Z,10.94
2023-05-24T03:55:28.169Z,10.62
2023-05-24T03:55:59.722Z,10.62
2023-05-24T03:56:31.847Z,10.30
2023-05-24T03:57:03.825Z,10.30
2023-05-24T03:57:36.854Z,9.89
2023-05-24T03:58:07.670Z,9.49
2023-05-24T03:58:39.833Z,9.49
2023-05-24T03:58:56.164Z,9.49
2023-05-24T03:59:27.727Z,9.49
2023-05-24T03:59:59.720Z,9.49
2023-05-24T04:00:32.907Z,9.33
2023-05-24T04:01:05.037Z,9.49
2023-05-24T04:01:36.512Z,9.33
2023-05-24T04:02:07.897Z,9.49
2023-05-24T04:02:40.071Z,9.33
2023-05-24T04:02:56.325Z,9.49
2023-05-24T04:03:27.895Z,9.89
2023-05-24T04:03:59.816Z,9.49
2023-05-24T04:04:31.783Z,8.77
2023-05-24T04:05:05.371Z,8.77
2023-05-24T04:05:36.582Z,8.20
2023-05-24T04:06:07.752Z,8.04
2023-05-24T04:06:40.034Z,8.04
2023-05-24T04:06:56.253Z,8.04
2023-05-24T04:07:28.190Z,8.20
2023-05-24T04:07:59.689Z,8.20
2023-05-24T04:08:32.396Z,8.04
2023-05-24T04:09:18.143Z,8.04
2023-05-24T04:09:36.437Z,8.20
2023-05-24T04:10:08.849Z,8.45
2023-05-24T04:10:39.984Z,8.45
2023-05-24T04:10:56.561Z,8.20
2023-05-24T04:11:27.718Z,8.04
2023-05-24T04:11:59.593Z,8.04
2023-05-24T04:12:31.852Z,8.45
2023-05-24T04:13:03.905Z,8.45
2023-05-24T04:13:36.192Z,8.04
2023-05-24T04:14:07.686Z,7.88
2023-05-24T04:14:39.777Z,7.88
2023-05-24T04:14:56.394Z,7.88
2023-05-24T04:15:28.629Z,8.29
2023-05-24T04:15:59.938Z,8.69
2023-05-24T04:16:16.271Z,8.69
2023-05-24T04:16:37.429Z,8.69
2023-05-24T04:17:03.978Z,8.69
2023-05-24T04:17:36.550Z,8.69
2023-05-24T04:18:08.073Z,8.69
2023-05-24T04:18:40.102Z,8.69
2023-05-24T04:18:56.170Z,8.69
2023-05-24T04:19:27.792Z,8.45
2023-05-24T04:19:59.837Z,8.45
2023-05-24T04:20:32.755Z,8.45
2023-05-24T04:21:03.797Z,8.45
2023-05-24T04:21:36.942Z,7.31
2023-05-24T04:22:07.782Z,6.27
2023-05-24T04:22:39.847Z,5.95
2023-05-24T04:22:56.204Z,5.95
2023-05-24T04:23:27.760Z,5.95
2023-05-24T04:24:00.163Z,5.95
2023-05-24T04:24:31.887Z,5.95
2023-05-24T04:25:05.702Z,5.95
2023-05-24T04:25:36.850Z,5.63
2023-05-24T04:26:07.783Z,5.63
2023-05-24T04:26:39.886Z,5.63
2023-05-24T04:26:56.268Z,5.63
2023-05-24T04:27:27.620Z,5.47
2023-05-24T04:27:59.671Z,5.47
2023-05-24T04:28:32.342Z,5.47
2023-05-24T04:29:03.942Z,5.06
2023-05-24T04:29:36.752Z,5.06
2023-05-24T04:30:09.283Z,5.06
2023-05-24T04:30:40.603Z,5.06
2023-05-24T04:30:56.674Z,5.47
2023-05-24T04:31:27.600Z,5.79
2023-05-24T04:31:59.749Z,5.79
2023-05-24T04:32:31.836Z,5.79
2023-05-24T04:33:03.918Z,6.27
2023-05-24T04:33:36.454Z,6.27
2023-05-24T04:34:07.597Z,6.27
2023-05-24T04:34:40.139Z,5.79
2023-05-24T04:34:56.207Z,5.23
2023-05-24T04:35:28.014Z,5.79
2023-05-24T04:35:59.611Z,5.23
2023-05-24T04:36:31.739Z,4.82
2023-05-24T04:37:03.767Z,4.66
2023-05-24T04:37:36.309Z,4.82
2023-05-24T04:38:07.727Z,4.82
2023-05-24T04:38:39.852Z,4.82
2023-05-24T04:38:56.396Z,5.23
2023-05-24T04:39:27.693Z,4.82
2023-05-24T04:39:59.687Z,4.66
2023-05-24T04:40:32.616Z,4.82
2023-05-24T04:41:03.921Z,4.82
2023-05-24T04:41:36.763Z,4.66
2023-05-24T04:42:07.759Z,4.82
2023-05-24T04:42:39.906Z,4.82
2023-05-24T04:42:56.203Z,4.66
2023-05-24T04:43:27.673Z,4.66
2023-05-24T04:43:59.980Z,4.66
2023-05-24T04:44:31.834Z,4.66
2023-05-24T04:45:05.936Z,4.66
2023-05-24T04:45:36.354Z,4.66
2023-05-24T04:46:09.120Z,4.66
2023-05-24T04:46:39.941Z,4.66
2023-05-24T04:46:56.220Z,4.66
2023-05-24T04:47:27.881Z,4.66
2023-05-24T04:47:59.824Z,4.66
2023-05-24T04:48:31.779Z,4.66
2023-05-24T04:49:03.845Z,4.66
2023-05-24T04:49:36.380Z,4.66
2023-05-24T04:50:08.624Z,4.66
2023-05-24T04:50:40.110Z,4.66
2023-05-24T04:50:56.621Z,4.66
2023-05-24T04:51:27.839Z,4.66
2023-05-24T04:51:59.721Z,4.66
2023-05-24T04:52:16.170Z,4.66
2023-05-24T04:52:37.274Z,4.66
2023-05-24T04:53:03.845Z,4.66
2023-05-24T04:53:36.429Z,4.66
2023-05-24T04:54:07.700Z,4.50
2023-05-24T04:54:39.853Z,4.50
2023-05-24T04:54:56.421Z,4.50
2023-05-24T04:55:28.027Z,4.34
2023-05-24T04:55:59.669Z,4.18
2023-05-24T04:56:31.843Z,4.02
2023-05-24T04:57:03.833Z,4.02
2023-05-24T04:57:36.447Z,4.02
2023-05-24T04:58:08.107Z,4.02
2023-05-24T04:58:39.913Z,4.02
2023-05-24T04:58:56.253Z,4.18
2023-05-24T04:59:27.657Z,4.18
2023-05-24T04:59:59.598Z,4.18
2023-05-24T05:00:33.066Z,3.61
2023-05-24T05:01:04.800Z,3.61
2023-05-24T05:01:36.417Z,4.18
2023-05-24T05:02:07.804Z,4.34
2023-05-24T05:02:39.843Z,4.50
2023-05-24T05:02:56.415Z,4.82
2023-05-24T05:03:27.948Z,5.23
2023-05-24T05:03:59.703Z,5.23
2023-05-24T05:04:16.212Z,5.23
2023-05-24T05:04:37.406Z,5.23
2023-05-24T05:05:06.370Z,5.47
2023-05-24T05:05:36.219Z,5.47
2023-05-24T05:06:07.801Z,5.47
2023-05-24T05:06:39.797Z,5.47
2023-05-24T05:06:56.554Z,5.47
2023-05-24T05:07:27.689Z,5.47
2023-05-24T05:07:59.610Z,5.47
2023-05-24T05:08:31.780Z,5.47
2023-05-24T05:09:03.689Z,5.23
2023-05-24T05:09:36.336Z,5.23
2023-05-24T05:10:08.655Z,5.47
2023-05-24T05:10:39.813Z,5.23
2023-05-24T05:10:57.211Z,5.23
2023-05-24T05:11:27.606Z,4.98
2023-05-24T05:11:59.622Z,4.82
2023-05-24T05:12:31.774Z,4.82
2023-05-24T05:13:03.933Z,4.82
2023-05-24T05:13:36.369Z,4.82
2023-05-24T05:14:07.768Z,4.98
2023-05-24T05:14:39.918Z,5.23
2023-05-24T05:14:56.293Z,5.23
2023-05-24T05:15:29.036Z,5.79
2023-05-24T05:16:00.163Z,5.95
2023-05-24T05:16:16.317Z,5.95
2023-05-24T05:16:37.308Z,6.43
2023-05-24T05:17:04.028Z,5.95
2023-05-24T05:17:36.452Z,5.95
2023-05-24T05:18:08.109Z,5.95
2023-05-24T05:18:39.961Z,6.43
2023-05-24T05:18:56.569Z,6.43
2023-05-24T05:19:27.932Z,6.43
2023-05-24T05:20:01.077Z,6.43
2023-05-24T05:20:32.763Z,6.43
2023-05-24T05:21:03.997Z,6.68
2023-05-24T05:21:36.568Z,6.68
2023-05-24T05:22:07.885Z,6.43
2023-05-24T05:22:39.988Z,6.43
2023-05-24T05:22:56.335Z,6.43
2023-05-24T05:23:27.871Z,5.95
2023-05-24T05:24:00.162Z,5.47
2023-05-24T05:24:31.943Z,5.47
2023-05-24T05:25:06.515Z,5.47
2023-05-24T05:25:36.483Z,5.47
2023-05-24T05:26:07.868Z,5.47
2023-05-24T05:26:40.013Z,5.47
2023-05-24T05:26:56.445Z,5.79
2023-05-24T05:27:27.980Z,6.11
2023-05-24T05:28:00.171Z,6.11
2023-05-24T05:28:31.928Z,5.79
2023-05-24T05:29:04.502Z,5.47
2023-05-24T05:29:36.626Z,5.47
2023-05-24T05:30:09.479Z,5.47
2023-05-24T05:30:40.279Z,5.47
2023-05-24T05:30:57.257Z,5.47
2023-05-24T05:31:27.852Z,5.63
2023-05-24T05:31:59.988Z,5.95
2023-05-24T05:32:16.531Z,6.11
2023-05-24T05:32:37.855Z,6.27
2023-05-24T05:33:04.078Z,6.43
2023-05-24T05:33:36.804Z,6.84
2023-05-24T05:34:08.293Z,6.84
2023-05-24T05:34:40.035Z,6.84
2023-05-24T05:34:56.541Z,7.40
2023-05-24T05:35:28.363Z,7.24
2023-05-24T05:35:59.946Z,7.24
2023-05-24T05:36:33.761Z,7.40
2023-05-24T05:37:04.025Z,7.40
2023-05-24T05:37:36.607Z,7.56
2023-05-24T05:38:08.172Z,7.72
2023-05-24T05:38:40.044Z,8.04
2023-05-24T05:38:56.369Z,8.45
2023-05-24T05:39:27.889Z,8.69
2023-05-24T05:39:59.954Z,8.69
2023-05-24T05:40:32.446Z,8.85
2023-05-24T05:41:03.995Z,9.01
2023-05-24T05:41:36.619Z,9.01
2023-05-24T05:42:07.774Z,9.01
2023-05-24T05:42:39.982Z,8.85
2023-05-24T05:42:56.388Z,8.69
2023-05-24T05:43:27.863Z,8.69
2023-05-24T05:43:59.910Z,8.69
2023-05-24T05:44:32.014Z,8.69
2023-05-24T05:45:06.394Z,8.69
2023-05-24T05:45:36.625Z,8.85
2023-05-24T05:46:07.996Z,8.85
2023-05-24T05:46:40.119Z,8.69
2023-05-24T05:46:56.425Z,8.85
2023-05-24T05:47:27.852Z,9.01
2023-05-24T05:47:59.851Z,9.01
2023-05-24T05:48:32.080Z,8.85
2023-05-24T05:49:04.115Z,8.85
2023-05-24T05:49:36.635Z,8.85
2023-05-24T05:50:09.155Z,8.85
2023-05-24T05:50:40.218Z,8.85
2023-05-24T05:50:56.757Z,8.45
2023-05-24T05:51:27.650Z,8.85
2023-05-24T05:51:59.569Z,8.85
2023-05-24T05:52:31.873Z,8.85
2023-05-24T05:53:03.795Z,9.01
2023-05-24T05:53:36.340Z,9.01
2023-05-24T05:54:07.842Z,9.17
2023-05-24T05:54:40.066Z,9.01
2023-05-24T05:54:56.462Z,9.01
2023-05-24T05:55:28.342Z,9.17
2023-05-24T05:56:00.166Z,9.33
2023-05-24T05:56:32.025Z,9.33
2023-05-24T05:57:04.030Z,9.33
2023-05-24T05:57:37.500Z,9.17
2023-05-24T05:58:07.904Z,9.33
2023-05-24T05:58:40.003Z,9.33
2023-05-24T05:58:56.384Z,9.49
2023-05-24T05:59:27.863Z,9.49
2023-05-24T06:00:00.208Z,9.49
2023-05-24T06:00:34.134Z,9.49
2023-05-24T06:01:05.268Z,10.06
2023-05-24T06:01:36.593Z,9.49
2023-05-24T06:02:08.140Z,9.49
2023-05-24T06:02:40.163Z,10.06
2023-05-24T06:02:56.536Z,10.06
2023-05-24T06:03:28.145Z,10.06
2023-05-24T06:03:59.949Z,9.17
2023-05-24T06:04:32.053Z,9.17
2023-05-24T06:05:05.712Z,9.17
2023-05-24T06:05:36.582Z,9.17
2023-05-24T06:06:07.942Z,9.17
2023-05-24T06:06:39.975Z,9.17
2023-05-24T06:06:56.591Z,8.29
2023-05-24T06:07:27.857Z,8.29
2023-05-24T06:07:59.867Z,8.29
2023-05-24T06:08:31.960Z,8.29
2023-05-24T06:09:04.029Z,7.88
2023-05-24T06:09:36.557Z,7.88
2023-05-24T06:10:08.964Z,7.88
2023-05-24T06:10:40.332Z,7.88
2023-05-24T06:10:56.854Z,7.88
2023-05-24T06:11:27.859Z,7.88
2023-05-24T06:11:59.971Z,7.72
2023-05-24T06:12:32.602Z,7.40
2023-05-24T06:13:04.108Z,7.40
2023-05-24T06:13:36.587Z,7.56
2023-05-24T06:14:07.854Z,7.56
2023-05-24T06:14:40.035Z,7.72
2023-05-24T06:14:56.506Z,7.72
2023-05-24T06:15:29.102Z,7.56
2023-05-24T06:15:59.938Z,7.40
2023-05-24T06:16:32.059Z,7.56
2023-05-24T06:17:03.921Z,7.56
2023-05-24T06:17:36.662Z,7.40
2023-05-24T06:18:07.969Z,7.40
2023-05-24T06:18:43.146Z,7.40
2023-05-24T06:19:05.347Z,7.56
2023-05-24T06:19:28.387Z,7.56
2023-05-24T06:20:00.278Z,7.40
2023-05-24T06:20:32.509Z,7.40
2023-05-24T06:21:03.993Z,7.08
2023-05-24T06:21:36.822Z,6.68
2023-05-24T06:22:08.223Z,6.68
2023-05-24T06:22:40.101Z,6.68
2023-05-24T06:22:56.771Z,6.43
2023-05-24T06:23:28.406Z,6.43
2023-05-24T06:23:59.885Z,6.43
2023-05-24T06:24:32.197Z,6.43
2023-05-24T06:25:05.480Z,6.43
2023-05-24T06:25:36.512Z,6.43
2023-05-24T06:26:07.913Z,6.43
2023-05-24T06:26:40.130Z,6.43
2023-05-24T06:26:56.458Z,6.43
2023-05-24T06:27:27.892Z,6.43
2023-05-24T06:27:59.891Z,6.43
2023-05-24T06:28:32.405Z,6.68
2023-05-24T06:29:04.173Z,6.43
2023-05-24T06:29:36.635Z,6.43
2023-05-24T06:30:09.582Z,6.43
2023-05-24T06:30:40.323Z,6.43
2023-05-24T06:30:56.860Z,6.68
2023-05-24T06:31:27.940Z,6.68
2023-05-24T06:31:59.915Z,6.68